Flight Track Log - Related Links

Times and Time Zones

All times are in EST time to prevent confusion due to time zone crossing. See the N143DE flight status page for this flight to view local times or setup timezone preferences in your user account.

Time Position Orientation Groundspeed Altitude Reporting Facility
EST Latitude Longitude Course Direction KTS MPH feet Rate Location/Type
Sun 10:51:36 AM 25.9072 -80.3444 269° West 170 196 1,900  Level Miami Center
Sun 10:52:37 AM 25.9119 -80.4069 275° West 203 234 2,700 879 Climbing Miami Center
Sun 10:53:32 AM 25.9275 -80.4606 288° West 206 237 3,600 1,345 Climbing Miami Center
Sun 10:54:33 AM 25.9469 -80.5189 290° West 181 208 5,300 1,538 Climbing Miami Center
Sun 10:55:29 AM 25.9908 -80.5089 12° North 206 237 6,600 1,610 Climbing Miami Center
Sun 10:56:36 AM 25.9989 -80.4419 82° East 194 223 8,600 1,701 Climbing Miami Center
Sun 10:57:36 AM 26.0475 -80.4225 20° North 190 219 10,200 1,485 Climbing Miami Center
Sun 10:58:17 AM 26.0808 -80.4236 358° North 193 222 11,100 1,307 Climbing Miami Center
Sun 10:59:17 AM 26.1350 -80.4253 358° North 205 236 12,400 1,300 Climbing Miami Center
Sun 11:01:17 AM 26.2431 -80.4492 349° North 199 229 15,000 1,267 Climbing Miami Center
Sun 11:02:17 AM 26.2947 -80.4717 339° North 193 222 16,200 1,200 Climbing Miami Center
Sun 11:03:17 AM 26.3506 -80.4919 342° North 199 229 17,400 900 Climbing Miami Center
Sun 11:04:17 AM 26.3958 -80.5167 334° Northwest 199 229 18,000 850 Climbing Miami Center
Sun 11:05:17 AM 26.4494 -80.5461 334° Northwest 194 223 19,100 1,000 Climbing Miami Center
Sun 11:06:17 AM 26.4947 -80.5706 334° Northwest 194 223 20,000 900 Climbing Miami Center
Sun 11:07:17 AM 26.5550 -80.5819 350° North 194 223 20,900 750 Climbing Miami Center
Sun 11:08:17 AM 26.6047 -80.5997 342° North 199 229 21,500 700 Climbing Miami Center
Sun 11:09:17 AM 26.6647 -80.6250 339° North 205 236 22,300 700 Climbing Miami Center
Sun 11:10:17 AM 26.7122 -80.6403 344° North 205 236 22,900 650 Climbing Miami Center
Sun 11:11:17 AM 26.7722 -80.6656 339° North 205 236 23,600 600 Climbing Miami Center
Sun 11:12:17 AM 26.8217 -80.6858 340° North 210 242 24,100 500 Climbing Miami Center
Sun 11:13:17 AM 26.8756 -80.7061 341° North 210 242 24,600 450 Climbing Miami Center
Sun 11:14:17 AM 26.9333 -80.7267 342° North 210 242 25,000 200 Climbing Miami Center
Sun 11:15:17 AM 26.9914 -80.7494 341° North 210 242 25,000  Level Miami Center
Sun 11:16:17 AM 27.0575 -80.7728 343° North 227 261 25,000  Level Miami Center
Sun 11:17:17 AM 27.1258 -80.7983 342° North 240 276 25,000  Level Miami Center
Sun 11:18:17 AM 27.1897 -80.8239 340° North 245 282 25,000  Level Miami Center
Sun 11:19:17 AM 27.2581 -80.8472 343° North 245 282 25,000  Level Miami Center
Sun 11:20:17 AM 27.3344 -80.8781 340° North 245 282 25,000  Level Miami Center
Sun 11:21:17 AM 27.4006 -80.9014 343° North 245 282 25,000  Level Miami Center
Sun 11:22:17 AM 27.4686 -80.9272 341° North 245 282 25,000  Level Miami Center
Sun 11:23:17 AM 27.5347 -80.9528 341° North 245 282 25,000  Level Miami Center
Sun 11:24:17 AM 27.6008 -80.9764 342° North 245 282 25,000  Level Miami Center
Sun 11:25:17 AM 27.6647 -81.0019 340° North 245 282 25,000  Level Miami Center
Sun 11:26:17 AM 27.7331 -81.0256 343° North 245 282 25,000  Level Miami Center
Sun 11:27:17 AM 27.7992 -81.0514 341° North 245 282 25,000  Level Miami Center
Sun 11:28:17 AM 27.8589 -81.0750 341° North 245 282 25,000  Level Miami Center
Sun 11:29:17 AM 27.9231 -81.0983 342° North 245 282 25,000  Level Miami Center
Sun 11:30:17 AM 27.9931 -81.1269 340° North 245 282 25,000  Level Miami Center
Sun 11:31:17 AM 28.0611 -81.1531 341° North 245 282 25,000  Level Miami Center
Sun 11:32:17 AM 28.1253 -81.1767 342° North 245 282 25,000  Level Miami Center
Sun 11:33:17 AM 28.1850 -81.2000 341° North 245 282 25,000  Level Miami Center
Sun 11:34:53 AM 28.2917 -81.2400 342° North 245 282 25,000  Level Jacksonville Center
Sun 11:35:53 AM 28.3567 -81.2650 341° North 245 282 25,000  Level Jacksonville Center
Sun 11:36:53 AM 28.4239 -81.2922 340° North 245 282 25,000  Level Jacksonville Center
Sun 11:37:53 AM 28.4908 -81.3100 347° North 250 288 25,000  Level Jacksonville Center
Sun 11:38:53 AM 28.5558 -81.3350 341° North 250 288 25,000 50 Level Jacksonville Center
Sun 11:39:53 AM 28.6208 -81.3600 341° North 250 288 25,100  Climbing Jacksonville Center
Sun 11:40:53 AM 28.6878 -81.3828 343° North 250 288 25,000 -50 Descending Jacksonville Center
Sun 11:41:53 AM 28.7528 -81.4078 341° North 250 288 25,000 50 Level Jacksonville Center
Sun 11:42:53 AM 28.8178 -81.4328 341° North 250 288 25,100 50 Climbing Jacksonville Center
Sun 11:43:53 AM 28.8847 -81.4556 343° North 250 288 25,100  Level Jacksonville Center
Sun 11:44:53 AM 28.9497 -81.4783 343° North 250 288 25,100  Level Jacksonville Center
Sun 11:45:53 AM 29.0169 -81.5011 343° North 250 288 25,100  Level Jacksonville Center
Sun 11:46:53 AM 29.0839 -81.5264 342° North 245 282 25,100  Level Jacksonville Center
Sun 11:47:53 AM 29.1489 -81.5517 341° North 245 282 25,100  Level Jacksonville Center
Sun 11:48:53 AM 29.2117 -81.5722 344° North 245 282 25,100  Level Jacksonville Center
Sun 11:49:53 AM 29.2767 -81.6022 338° Northwest 245 282 25,100  Level Jacksonville Center
Sun 11:50:53 AM 29.3436 -81.6228 345° North 245 282 25,100  Level Jacksonville Center
Sun 11:51:53 AM 29.4086 -81.6481 341° North 245 282 25,100  Level Jacksonville Center
Sun 11:52:53 AM 29.4736 -81.6711 343° North 245 282 25,100  Level Jacksonville Center
Sun 11:53:53 AM 29.5428 -81.6942 344° North 245 282 25,100  Level Jacksonville Center
Sun 11:54:53 AM 29.6078 -81.7197 341° North 245 282 25,100  Level Jacksonville Center
Sun 11:55:53 AM 29.6747 -81.7428 343° North 245 282 25,100  Level Jacksonville Center
Sun 11:56:53 AM 29.7397 -81.7658 343° North 245 282 25,100  Level Jacksonville Center
Sun 11:57:53 AM 29.8067 -81.7914 342° North 245 282 25,100  Level Jacksonville Center
Sun 11:58:53 AM 29.8717 -81.8147 343° North 245 282 25,100  Level Jacksonville Center
Sun 11:59:53 AM 29.9386 -81.8381 343° North 245 282 25,100  Level Jacksonville Center
Sun 12:00:53 PM 30.0056 -81.8636 342° North 245 282 25,100  Level Jacksonville Center
Sun 12:01:53 PM 30.0767 -81.8869 344° North 245 282 25,100  Level Jacksonville Center
Sun 12:02:53 PM 30.1417 -81.9103 343° North 245 282 25,100  Level Jacksonville Center
Sun 12:03:53 PM 30.2067 -81.9358 341° North 250 288 25,100  Level Jacksonville Center
Sun 12:04:53 PM 30.2714 -81.9594 343° North 245 282 25,100  Level Jacksonville Center
Sun 12:05:53 PM 30.3383 -81.9828 343° North 250 288 25,100  Level Jacksonville Center
Sun 12:06:53 PM 30.4056 -82.0086 342° North 250 288 25,100  Level Jacksonville Center
Sun 12:07:53 PM 30.4725 -82.0322 343° North 245 282 25,100  Level Jacksonville Center
Sun 12:08:53 PM 30.5394 -82.0581 342° North 250 288 25,100  Level Jacksonville Center
Sun 12:09:53 PM 30.6000 -82.0817 341° North 250 288 25,100  Level Jacksonville Center
Sun 12:10:53 PM 30.6669 -82.1078 341° North 250 288 25,100  Level Jacksonville Center
Sun 12:11:53 PM 30.7342 -82.1336 342° North 250 288 25,100  Level Jacksonville Center
Sun 12:12:53 PM 30.7989 -82.1572 343° North 250 288 25,100  Level Jacksonville Center
Sun 12:13:53 PM 30.8700 -82.1833 343° North 250 288 25,100  Level Jacksonville Center
Sun 12:14:53 PM 30.9350 -82.2094 341° North 250 288 25,100  Level Jacksonville Center
Sun 12:15:53 PM 31.0019 -82.2358 341° North 250 288 25,100  Level Jacksonville Center
Sun 12:16:53 PM 31.0689 -82.2594 343° North 250 288 25,100  Level Jacksonville Center
Sun 12:17:53 PM 31.1336 -82.2906 338° Northwest 250 288 25,100  Level Jacksonville Center
Sun 12:18:53 PM 31.2006 -82.3122 345° North 250 288 25,100  Level Jacksonville Center
Sun 12:19:53 PM 31.2697 -82.3358 344° North 250 288 25,100  Level Jacksonville Center
Sun 12:20:53 PM 31.3364 -82.3600 343° North 250 288 25,100  Level Jacksonville Center
Sun 12:21:53 PM 31.4117 -82.3861 344° North 255 293 25,100 -350 Level Jacksonville Center
Sun 12:22:53 PM 31.4808 -82.4150 340° North 255 293 24,400 -650 Descending Jacksonville Center
Sun 12:23:53 PM 31.5561 -82.4417 343° North 265 305 23,800 -700 Descending Jacksonville Center
Sun 12:24:53 PM 31.6272 -82.4706 341° North 265 305 23,000 -750 Descending Jacksonville Center
Sun 12:25:53 PM 31.7003 -82.4969 343° North 270 311 22,300 -500 Descending Jacksonville Center
Sun 12:26:53 PM 31.7714 -82.5261 341° North 264 304 22,000 -150 Descending Jacksonville Center
Sun 12:27:53 PM 31.8403 -82.5503 343° North 264 304 22,000  Level Jacksonville Center
Sun 12:28:53 PM 31.9053 -82.5769 341° North 258 297 22,000  Level Jacksonville Center
Sun 12:29:30 PM 31.9428 -82.5925 341° North 253 291 22,000  Level Atlanta Center
Sun 12:30:30 PM 32.0075 -82.6158 343° North 246 283 22,000  Level Atlanta Center
Sun 12:31:30 PM 32.0728 -82.6442 340° North 246 283 22,000  Level Atlanta Center
Sun 12:32:30 PM 32.1397 -82.6678 343° North 246 283 22,000  Level Atlanta Center
Sun 12:33:30 PM 32.2047 -82.6936 341° North 251 289 22,000  Level Atlanta Center
Sun 12:34:30 PM 32.2717 -82.7197 342° North 251 289 22,000  Level Atlanta Center
Sun 12:35:30 PM 32.3389 -82.7458 342° North 251 289 22,000  Level Atlanta Center
Sun 12:36:30 PM 32.4039 -82.7719 341° North 251 289 22,000  Level Atlanta Center
Sun 12:37:30 PM 32.4731 -82.7981 342° North 251 289 22,000 -550 Level Atlanta Center
Sun 12:38:30 PM 32.5378 -82.8217 343° North 246 283 20,900 -1,150 Descending Atlanta Center
Sun 12:39:30 PM 32.5989 -82.8678 328° Northwest 252 290 19,700 -1,200 Descending Atlanta Center
Sun 12:40:30 PM 32.6536 -82.9211 321° Northwest 252 290 18,500 -1,100 Descending Atlanta Center
Sun 12:41:30 PM 32.7083 -82.9772 319° Northwest 257 296 17,500 -1,050 Descending Atlanta Center
Sun 12:42:30 PM 32.7589 -83.0311 318° Northwest 257 296 16,400 -1,050 Descending Atlanta Center
Sun 12:43:30 PM 32.8117 -83.0797 322° Northwest 252 290 15,400 -1,000 Descending Atlanta Center
Sun 12:44:30 PM 32.8619 -83.1314 319° Northwest 246 283 14,400 -1,150 Descending Atlanta Center
Sun 12:45:30 PM 32.9144 -83.1828 321° Northwest 241 277 13,100 -1,300 Descending Atlanta Center
Sun 12:46:30 PM 32.9650 -83.2342 320° Northwest 236 272 11,800 -1,250 Descending Atlanta Center
Sun 12:47:30 PM 33.0156 -83.2883 318° Northwest 243 280 10,600 -1,100 Descending Atlanta Center
Sun 12:48:30 PM 33.0617 -83.3350 320° Northwest 238 274 9,600 -1,000 Descending Atlanta Center
Sun 12:49:30 PM 33.1119 -83.3917 317° Northwest 232 267 8,600 -800 Descending Atlanta Center
Sun 12:50:30 PM 33.1625 -83.4383 322° Northwest 227 261 8,000 -300 Descending Atlanta Center
Sun 12:51:30 PM 33.2044 -83.4828 318° Northwest 213 245 8,000  Level Atlanta Center
Sun 12:52:30 PM 33.2483 -83.5272 320° Northwest 213 245 8,000  Level Atlanta Center
Sun 12:53:30 PM 33.2944 -83.5717 321° Northwest 208 239 8,000  Level Atlanta Center
Sun 12:55:41 PM 33.4000 -83.6667 323° Northwest 213 245 8,000 -32 Level Atlanta TRACON
Sun 12:56:35 PM 33.4333 -83.7000 320° Northwest 218 251 7,900 -600 Descending Atlanta TRACON
Sun 12:57:41 PM 33.5000 -83.7500 328° Northwest 235 270 6,800 -773 Descending Atlanta TRACON
Sun 12:58:47 PM 33.5667 -83.7833 337° Northwest 243 280 6,200 -429 Descending Atlanta TRACON
Sun 12:59:47 PM 33.6167 -83.8167 331° Northwest 235 270 5,900 -389 Descending Atlanta TRACON
Sun 01:00:35 PM 33.6833 -83.8167 360° North 241 277 5,500 -632 Descending Atlanta TRACON
Sun 01:01:41 PM 33.7500 -83.8333 348° North 248 285 4,700 -667 Descending Atlanta TRACON
Sun 01:02:41 PM 33.8167 -83.8500 348° North 233 268 4,100 -400 Descending Atlanta TRACON
Sun 01:03:41 PM 33.8667 -83.8833 331° Northwest 200 230 3,900 -100 Descending Atlanta TRACON
Sun 01:04:41 PM 33.9167 -83.9167 331° Northwest 182 209 3,900  Level Atlanta TRACON
Sun 01:05:42 PM 33.9167 -83.9667 270° West 155 178 3,900  Level Atlanta TRACON
Sun 01:06:41 PM 33.9333 -84.0167 292° West 153 176 3,900  Level Atlanta TRACON
Sun 01:07:41 PM 33.9333 -84.0667 270° West 155 178 3,900 -100 Level Atlanta TRACON
Sun 01:08:41 PM 33.9333 -84.1167 270° West 156 180 3,700 -400 Descending Atlanta TRACON
Sun 01:09:41 PM 33.9500 -84.1667 292° West 171 197 3,100 -350 Descending Atlanta TRACON
Sun 01:10:41 PM 33.9500 -84.2333 270° West 157 181 3,000 -50 Descending Atlanta TRACON
Sun 01:11:41 PM 33.9667 -84.2667 301° West 151 174 3,000  Level Atlanta TRACON
Sun 01:12:35 PM 33.9667 -84.3167 270° West 148 170 3,000  Level Atlanta TRACON
Sun 01:13:41 PM 33.9833 -84.3667 292° West 151 174 3,000  Level Atlanta TRACON
Sun 01:14:41 PM 34.0000 -84.4167 292° West 141 162 3,000 50 Level Atlanta TRACON
Sun 01:15:41 PM 34.0167 -84.4667 292° West 138 159 3,100 -211 Climbing Atlanta TRACON
Sun 01:16:35 PM 34.0167 -84.5000 270° West 128 147 2,600 -600 Descending Atlanta TRACON
Sun 01:17:41 PM 34.0167 -84.5333 270° West 123 142 1,900 -636 Descending Atlanta TRACON

Login

Don't have an account? Register now (free) for customized features, flight alerts, and more!